createdAt,value
2018-02-23T00:00:04.801Z,-2.0
2018-02-23T00:05:02.866Z,-2.2
2018-02-23T00:10:02.478Z,-2.2
2018-02-23T00:15:02.925Z,-2.2
2018-02-23T00:20:03.364Z,-2.2
2018-02-23T00:25:02.905Z,-2.2
2018-02-23T00:30:02.502Z,-2.5
2018-02-23T00:35:02.934Z,-2.5
2018-02-23T00:40:02.575Z,-2.5
2018-02-23T00:45:03.015Z,-2.5
2018-02-23T00:50:02.605Z,-2.5
2018-02-23T00:55:03.390Z,-2.5
2018-02-23T01:00:02.838Z,-2.5
2018-02-23T01:05:02.547Z,-2.5
2018-02-23T01:10:03.075Z,-2.5
2018-02-23T01:15:02.529Z,-2.5
2018-02-23T01:20:02.960Z,-2.5
2018-02-23T01:25:02.633Z,-2.5
2018-02-23T01:30:03.057Z,-2.5
2018-02-23T01:35:02.513Z,-2.5
2018-02-23T01:40:03.019Z,-2.5
2018-02-23T01:45:02.444Z,-2.5
2018-02-23T01:50:03.093Z,-2.5
2018-02-23T01:55:02.518Z,-2.5
2018-02-23T02:00:03.078Z,-2.2
2018-02-23T02:05:02.574Z,-2.2
2018-02-23T02:10:03.113Z,-2.2
2018-02-23T02:15:02.557Z,-1.8
2018-02-23T02:20:03.013Z,-1.8
2018-02-23T02:25:02.833Z,-1.8
2018-02-23T02:30:03.351Z,-2.0
2018-02-23T02:35:02.749Z,-2.2
2018-02-23T02:40:03.230Z,-2.2
2018-02-23T02:45:03.023Z,-2.5
2018-02-23T02:50:02.712Z,-2.5
2018-02-23T02:55:03.224Z,-2.2
2018-02-23T03:00:02.644Z,-2.2
2018-02-23T03:05:03.335Z,-2.0
2018-02-23T03:10:02.927Z,-2.0
2018-02-23T03:15:03.350Z,-2.0
2018-02-23T03:20:02.736Z,-2.0
2018-02-23T03:25:03.227Z,-2.0
2018-02-23T03:30:02.724Z,-1.7
2018-02-23T03:35:03.181Z,-1.8
2018-02-23T03:40:02.615Z,-1.7
2018-02-23T03:45:03.023Z,-1.7
2018-02-23T03:50:02.615Z,-1.7
2018-02-23T03:55:03.067Z,-1.7
2018-02-23T04:00:02.671Z,-1.7
2018-02-23T04:05:03.283Z,-1.7
2018-02-23T04:10:02.790Z,-1.7
2018-02-23T04:15:03.231Z,-1.7
2018-02-23T04:20:02.741Z,-1.7
2018-02-23T04:25:03.161Z,-1.5
2018-02-23T04:30:02.592Z,-1.7
2018-02-23T04:35:03.055Z,-1.7
2018-02-23T04:40:02.516Z,-1.5
2018-02-23T04:45:02.948Z,-1.7
2018-02-23T04:50:02.373Z,-1.8
2018-02-23T04:55:02.783Z,-2.0
2018-02-23T05:00:03.283Z,-1.8
2018-02-23T05:05:02.661Z,-2.0
2018-02-23T05:10:03.120Z,-2.0
2018-02-23T05:15:02.564Z,-2.2
2018-02-23T05:20:03.129Z,-2.5
2018-02-23T05:25:02.588Z,-2.5
2018-02-23T05:30:03.294Z,-2.2
2018-02-23T05:35:02.704Z,-2.2
2018-02-23T05:40:03.238Z,-2.2
2018-02-23T05:45:02.691Z,-2.2
2018-02-23T05:50:03.211Z,-2.2
2018-02-23T05:55:02.566Z,-2.5
2018-02-23T06:00:03.009Z,-2.5
2018-02-23T06:05:02.508Z,-2.7
2018-02-23T06:10:03.025Z,-2.7
2018-02-23T06:15:02.465Z,-2.7
2018-02-23T06:20:02.846Z,-2.7
2018-02-23T06:25:03.312Z,-2.7
2018-02-23T06:30:02.944Z,-2.5
2018-02-23T06:35:02.474Z,-2.5
2018-02-23T06:40:02.946Z,-2.7
2018-02-23T06:45:02.419Z,-2.7
2018-02-23T06:50:02.888Z,-2.7
2018-02-23T06:55:03.481Z,-2.5
2018-02-23T07:00:03.228Z,-2.5
2018-02-23T07:05:02.738Z,-2.5
2018-02-23T07:10:03.481Z,-2.7
2018-02-23T07:15:02.917Z,-2.5
2018-02-23T07:20:03.359Z,-2.5
2018-02-23T07:25:02.813Z,-2.7
2018-02-23T07:30:03.225Z,-2.5
2018-02-23T07:35:02.695Z,-2.5
2018-02-23T07:40:03.184Z,-2.5
2018-02-23T07:45:02.546Z,-2.2
2018-02-23T07:50:03.357Z,-2.0
2018-02-23T07:55:02.830Z,-1.8
2018-02-23T08:00:02.394Z,-1.5
2018-02-23T08:05:03.003Z,-1.2
2018-02-23T08:10:02.719Z,-1.1
2018-02-23T08:15:03.178Z,-0.8
2018-02-23T08:20:02.726Z,-0.8
2018-02-23T08:25:03.145Z,-0.6
2018-02-23T08:30:03.078Z,-0.6
2018-02-23T08:35:02.476Z,-0.5
2018-02-23T08:40:04.007Z,-0.5
2018-02-23T08:45:02.476Z,-0.5
2018-02-23T08:50:02.953Z,-0.3
2018-02-23T08:55:02.451Z,0.3
2018-02-23T09:00:02.982Z,0.6
2018-02-23T09:05:03.370Z,0.6
2018-02-23T09:10:02.821Z,0.6
2018-02-23T09:15:03.398Z,0.8
2018-02-23T09:20:02.836Z,1.2
2018-02-23T09:25:03.282Z,1.6
2018-02-23T09:30:02.697Z,0.8
2018-02-23T09:35:02.405Z,0.7
2018-02-23T09:40:02.926Z,1.6
2018-02-23T09:45:03.377Z,1.2
2018-02-23T09:50:02.840Z,1.1
2018-02-23T09:55:03.353Z,1.6
2018-02-23T10:00:02.791Z,2.0
2018-02-23T10:05:02.519Z,2.7
2018-02-23T10:10:03.049Z,2.5
2018-02-23T10:15:02.423Z,2.4
2018-02-23T10:20:03.006Z,2.0
2018-02-23T10:25:02.426Z,2.4
2018-02-23T10:30:02.860Z,2.0
2018-02-23T10:35:03.315Z,2.2
2018-02-23T10:40:02.806Z,2.5
2018-02-23T10:45:03.293Z,2.4
2018-02-23T10:50:02.671Z,2.2
2018-02-23T10:55:03.154Z,3.0
2018-02-23T11:00:02.520Z,3.2
2018-02-23T11:05:03.036Z,3.2
2018-02-23T11:10:02.592Z,3.2
2018-02-23T11:15:03.086Z,3.2
2018-02-23T11:20:02.564Z,3.5
2018-02-23T11:25:03.359Z,4.8
2018-02-23T11:30:02.868Z,4.0
2018-02-23T11:35:03.284Z,3.7
2018-02-23T11:40:02.772Z,3.2
2018-02-23T11:45:03.187Z,4.5
2018-02-23T11:50:02.713Z,4.5
2018-02-23T11:55:03.159Z,4.3
2018-02-23T12:00:02.606Z,4.5
2018-02-23T12:05:03.163Z,3.7
2018-02-23T12:10:02.648Z,4.8
2018-02-23T12:15:03.158Z,4.0
2018-02-23T12:20:02.632Z,3.7
2018-02-23T12:25:03.069Z,4.0
2018-02-23T12:30:02.512Z,5.0
2018-02-23T12:35:03.028Z,4.0
2018-02-23T12:40:02.505Z,4.5
2018-02-23T12:45:02.948Z,5.5
2018-02-23T12:50:02.447Z,5.3
2018-02-23T12:55:02.903Z,4.5
2018-02-23T13:00:02.396Z,5.0
2018-02-23T13:05:02.936Z,6.0
2018-02-23T13:10:02.442Z,4.8
2018-02-23T13:15:02.844Z,5.5
2018-02-23T13:20:03.291Z,6.0
2018-02-23T13:25:02.817Z,5.5
2018-02-23T13:30:03.271Z,5.9
2018-02-23T13:35:02.695Z,5.4
2018-02-23T13:40:03.198Z,5.5
2018-02-23T13:45:02.586Z,5.3
2018-02-23T13:50:03.110Z,5.0
2018-02-23T13:55:02.626Z,4.8
2018-02-23T14:00:02.462Z,5.5
2018-02-23T14:05:02.943Z,5.0
2018-02-23T14:10:02.459Z,4.3
2018-02-23T14:15:02.944Z,4.5
2018-02-23T14:20:02.488Z,5.4
2018-02-23T14:25:02.950Z,5.4
2018-02-23T14:30:02.400Z,4.3
2018-02-23T14:35:02.885Z,5.0
2018-02-23T14:40:03.318Z,5.4
2018-02-23T14:45:02.711Z,4.5
2018-02-23T14:50:03.348Z,5.4
2018-02-23T14:55:02.701Z,5.3
2018-02-23T15:00:03.126Z,4.3
2018-02-23T15:05:02.623Z,4.0
2018-02-23T15:10:02.415Z,4.0
2018-02-23T15:15:02.935Z,4.5
2018-02-23T15:20:02.541Z,4.5
2018-02-23T15:25:03.039Z,4.3
2018-02-23T15:30:02.549Z,4.5
2018-02-23T15:35:02.943Z,4.0
2018-02-23T15:40:02.478Z,4.0
2018-02-23T15:45:02.976Z,3.7
2018-02-23T15:50:02.397Z,3.7
2018-02-23T15:55:02.859Z,3.7
2018-02-23T16:00:03.304Z,4.0
2018-02-23T16:05:02.814Z,3.7
2018-02-23T16:10:03.357Z,3.2
2018-02-23T16:15:02.864Z,3.0
2018-02-23T16:20:03.360Z,1.8
2018-02-23T16:25:02.784Z,1.7
2018-02-23T16:30:03.191Z,1.6
2018-02-23T16:35:02.683Z,1.3
2018-02-23T16:40:03.278Z,1.3
2018-02-23T16:45:02.802Z,1.1
2018-02-23T16:50:03.308Z,1.1
2018-02-23T16:55:02.768Z,0.8
2018-02-23T17:00:03.205Z,0.7
2018-02-23T17:05:02.750Z,0.6
2018-02-23T17:10:03.345Z,0.4
2018-02-23T17:15:02.787Z,0.4
2018-02-23T17:20:03.252Z,0.4
2018-02-23T17:25:02.707Z,0.4
2018-02-23T17:30:03.494Z,0.3
2018-02-23T17:35:02.945Z,0.1
2018-02-23T17:40:02.457Z,0.1
2018-02-23T17:45:02.860Z,0.1
2018-02-23T17:50:03.364Z,0.0
2018-02-23T17:55:02.994Z,0.0
2018-02-23T18:00:02.470Z,0.0
2018-02-23T18:05:03.013Z,0.0
2018-02-23T18:10:02.604Z,-0.3
2018-02-23T18:15:03.062Z,0.0
2018-02-23T18:20:02.534Z,-0.3
2018-02-23T18:25:03.028Z,-0.3
2018-02-23T18:30:02.535Z,-0.3
2018-02-23T18:35:03.120Z,-0.5
2018-02-23T18:40:02.692Z,-0.6
2018-02-23T18:45:03.209Z,-0.6
2018-02-23T18:50:02.588Z,-0.6
2018-02-23T18:55:03.019Z,-0.8
2018-02-23T19:00:02.522Z,-0.6
2018-02-23T19:05:03.031Z,-0.8
2018-02-23T19:10:02.655Z,-0.8
2018-02-23T19:15:03.117Z,-0.8
2018-02-23T19:20:02.713Z,-0.8
2018-02-23T19:25:03.168Z,-1.1
2018-02-23T19:30:02.619Z,-1.2
2018-02-23T19:35:03.060Z,-1.2
2018-02-23T19:40:02.666Z,-1.1
2018-02-23T19:45:02.427Z,-1.2
2018-02-23T19:50:02.896Z,-1.2
2018-02-23T19:55:02.656Z,-1.5
2018-02-23T20:00:03.229Z,-1.5
2018-02-23T20:05:02.863Z,-1.5
2018-02-23T20:10:02.449Z,-1.5
2018-02-23T20:15:02.461Z,-1.7
2018-02-23T20:20:03.043Z,-1.5
2018-02-23T20:25:02.772Z,-1.7
2018-02-23T20:30:03.154Z,-1.7
2018-02-23T20:35:02.699Z,-1.7
2018-02-23T20:40:02.502Z,-1.7
2018-02-23T20:45:02.425Z,-1.8
2018-02-23T20:50:02.531Z,-1.7
2018-02-23T20:55:03.512Z,-1.7
2018-02-23T21:00:03.016Z,-1.8
2018-02-23T21:05:02.881Z,-1.7
2018-02-23T21:10:02.492Z,-1.8
2018-02-23T21:15:03.283Z,-1.8
2018-02-23T21:20:02.825Z,-1.8
2018-02-23T21:25:03.268Z,-1.8
2018-02-23T21:30:02.767Z,-1.8
2018-02-23T21:35:03.361Z,-2.0
2018-02-23T21:40:02.960Z,-1.8
2018-02-23T21:45:02.768Z,-2.0
2018-02-23T21:50:03.253Z,-2.0
2018-02-23T21:55:02.686Z,-2.0
2018-02-23T22:00:03.421Z,-2.2
2018-02-23T22:05:02.880Z,-2.0
2018-02-23T22:10:02.445Z,-2.0
2018-02-23T22:15:02.899Z,-2.0
2018-02-23T22:20:02.393Z,-2.0
2018-02-23T22:25:02.784Z,-2.0
2018-02-23T22:30:03.243Z,-2.0
2018-02-23T22:35:02.662Z,-2.0
2018-02-23T22:40:03.216Z,-2.0
2018-02-23T22:45:02.660Z,-2.2
2018-02-23T22:50:03.061Z,-2.0
2018-02-23T22:55:02.429Z,-2.2
2018-02-23T23:00:02.942Z,-2.2
2018-02-23T23:05:02.479Z,-2.2
2018-02-23T23:10:02.966Z,-2.2
2018-02-23T23:15:03.379Z,-2.2
2018-02-23T23:20:02.916Z,-2.5
2018-02-23T23:25:03.274Z,-2.5
2018-02-23T23:30:02.699Z,-2.5
2018-02-23T23:35:03.144Z,-2.2
2018-02-23T23:40:02.621Z,-2.7
2018-02-23T23:45:03.017Z,-2.5
2018-02-23T23:50:02.488Z,-2.5
2018-02-23T23:55:03.153Z,-2.7
